Terminal Aerodrome Forecast
Issued by NWS Grand Forks, ND

Home | Current Version | Previous Version | Text Only | Print | Product List | Glossary On
Versions: 1 2 3 4 5 6 7 8 9 10 11 12 13 14
752
FTUS43 KFGF 222332
TAFFAR
TAF
KFAR 222332Z 2300/2324 31014KT P6SM FEW070
     FM230400 33008KT P6SM FEW050
     FM231700 36007KT P6SM SCT045
     FM232300 03006KT P6SM SKC=

USA.gov is the U.S. government's official web portal to all federal, state and local government web resources and services.